Accueil
METAR-TAF:

METAR-TAF

Aéroports :

Parc national Hwange, Zimbabwe

latitude: 18-38S, longitude: 027-00E, altitude: 1079 m

Observation

Le bulletin a été fait il y a 3 heures et 38 minutes, à 09:00 UTC
Vent 15 kt de est
Température 20°C
Humidité 15%
Pression 1027 hPa
Visibilité 10 km ou plus
pas de nuages en-dessous de 1500 mètres et pas de cumulonimbus.

METAR: FVWN 140900Z 08015KT CAVOK 20/M07 Q1027 NOSIG

Heure: 14:38 (12:38 UTC)


TAF: absent

Observations et prévisions météorologiques de plus de 4000 aéroports (messages METAR et TAF).

Les stations disponibles sont représentées par des disques jaunes et rouges sur la carte.

Passer la souris dessus pour voir le nom de la station.

Cliquer dessus pour voir les observations et prévisions météorologiques.

Pour changer de carte: cliquez sur les boutons verts avec une croix noire pour zoomer, sur le bouton vert avec un tiret pour effectuer un zoom arrière, ou sur les flèches vertes pour les cartes adjacentes.


METAR-TAF: